createdAt,value
2022-08-16T00:00:26.554Z,99.90
2022-08-16T00:02:53.524Z,99.90
2022-08-16T00:05:22.398Z,99.90
2022-08-16T00:07:56.084Z,99.90
2022-08-16T00:10:25.619Z,99.90
2022-08-16T00:12:52.394Z,99.90
2022-08-16T00:15:25.347Z,99.90
2022-08-16T00:18:13.788Z,99.90
2022-08-16T00:20:43.472Z,99.90
2022-08-16T00:23:10.320Z,99.90
2022-08-16T00:26:35.446Z,99.90
2022-08-16T00:28:24.071Z,99.90
2022-08-16T00:30:55.228Z,99.90
2022-08-16T00:33:25.991Z,99.90
2022-08-16T00:35:52.804Z,99.90
2022-08-16T00:38:43.543Z,99.90
2022-08-16T00:41:08.164Z,99.90
2022-08-16T00:43:42.669Z,99.90
2022-08-16T00:46:33.840Z,99.90
2022-08-16T00:49:02.848Z,99.90
2022-08-16T00:51:30.207Z,99.90
2022-08-16T00:53:57.063Z,99.90
2022-08-16T00:56:58.098Z,99.90
2022-08-16T00:59:20.757Z,99.90
2022-08-16T01:01:51.154Z,99.90
2022-08-16T01:04:30.104Z,99.90
2022-08-16T01:07:02.255Z,99.90
2022-08-16T01:09:37.413Z,99.90
2022-08-16T01:12:08.660Z,99.90
2022-08-16T01:14:47.186Z,99.90
2022-08-16T01:17:15.307Z,99.90
2022-08-16T01:19:48.016Z,99.90
2022-08-16T01:22:52.610Z,99.90
2022-08-16T01:25:34.057Z,99.90
2022-08-16T01:28:04.742Z,99.90
2022-08-16T01:30:39.688Z,99.90
2022-08-16T01:33:15.590Z,99.90
2022-08-16T01:35:56.459Z,99.90
2022-08-16T01:38:32.015Z,99.90
2022-08-16T01:41:03.680Z,99.90
2022-08-16T01:43:31.651Z,99.90
2022-08-16T01:46:29.943Z,99.90
2022-08-16T01:48:47.819Z,99.90
2022-08-16T01:51:17.788Z,99.90
2022-08-16T01:53:44.589Z,99.90
2022-08-16T01:56:24.234Z,99.90
2022-08-16T01:58:54.847Z,99.90
2022-08-16T02:01:22.761Z,99.90
2022-08-16T02:03:50.623Z,99.90
2022-08-16T02:06:34.307Z,99.90
2022-08-16T02:09:07.192Z,99.90
2022-08-16T02:11:48.481Z,99.90
2022-08-16T02:14:27.352Z,99.90
2022-08-16T02:16:59.325Z,99.90
2022-08-16T02:19:58.522Z,99.90
2022-08-16T02:22:34.144Z,99.90
2022-08-16T02:25:06.587Z,99.90
2022-08-16T02:27:34.915Z,99.90
2022-08-16T02:30:07.080Z,99.90
2022-08-16T02:32:51.290Z,99.90
2022-08-16T02:35:22.940Z,99.90
2022-08-16T02:37:52.854Z,99.90
2022-08-16T02:40:21.369Z,99.90
2022-08-16T02:42:50.645Z,99.90
2022-08-16T02:45:20.009Z,99.90
2022-08-16T02:48:01.603Z,99.90
2022-08-16T02:50:53.584Z,99.90
2022-08-16T02:53:23.618Z,99.90
2022-08-16T02:55:50.785Z,99.90
2022-08-16T02:58:18.392Z,99.90
2022-08-16T03:00:45.626Z,99.90
2022-08-16T03:03:17.761Z,99.90
2022-08-16T03:05:50.008Z,99.90
2022-08-16T03:08:50.487Z,99.90
2022-08-16T03:11:16.870Z,99.90
2022-08-16T03:13:51.403Z,99.90
2022-08-16T03:16:38.145Z,99.90
2022-08-16T03:19:06.696Z,99.90
2022-08-16T03:21:38.235Z,99.90
2022-08-16T03:24:06.418Z,99.90
2022-08-16T03:26:53.044Z,99.90
2022-08-16T03:29:19.664Z,99.90
2022-08-16T03:31:46.745Z,99.90
2022-08-16T03:34:19.862Z,99.90
2022-08-16T03:36:47.373Z,99.90
2022-08-16T03:39:14.835Z,99.90
2022-08-16T03:41:49.671Z,99.90
2022-08-16T03:44:44.292Z,99.90
2022-08-16T03:47:10.140Z,99.90
2022-08-16T03:49:37.721Z,99.90
2022-08-16T03:52:06.301Z,99.90
2022-08-16T03:54:35.563Z,99.90
2022-08-16T03:57:03.248Z,99.90
2022-08-16T03:59:31.927Z,99.90
2022-08-16T04:02:01.086Z,99.90
2022-08-16T04:04:33.313Z,99.90
2022-08-16T04:07:03.364Z,99.90
2022-08-16T04:09:35.388Z,99.90
2022-08-16T04:12:04.835Z,99.90
2022-08-16T04:14:46.667Z,99.90
2022-08-16T04:17:15.443Z,99.90
2022-08-16T04:19:45.589Z,99.90
2022-08-16T04:22:13.931Z,99.90
2022-08-16T04:24:55.310Z,99.90
2022-08-16T04:27:24.412Z,99.90
2022-08-16T04:29:52.210Z,99.90
2022-08-16T04:32:19.594Z,99.90
2022-08-16T04:34:46.413Z,99.90
2022-08-16T04:37:12.980Z,99.90
2022-08-16T04:39:47.257Z,99.90
2022-08-16T04:42:26.417Z,99.90
2022-08-16T04:44:58.209Z,99.90
2022-08-16T04:47:31.408Z,99.90
2022-08-16T04:49:59.819Z,99.90
2022-08-16T04:52:32.843Z,99.90
2022-08-16T04:55:01.068Z,99.90
2022-08-16T04:57:30.434Z,99.90
2022-08-16T04:59:57.212Z,99.90
2022-08-16T05:02:42.309Z,99.90
2022-08-16T05:05:17.843Z,99.90
2022-08-16T05:07:58.462Z,99.90
2022-08-16T05:10:29.686Z,99.90
2022-08-16T05:12:57.794Z,99.90
2022-08-16T05:15:24.902Z,99.90
2022-08-16T05:17:58.890Z,99.90
2022-08-16T05:20:39.164Z,99.90
2022-08-16T05:23:16.844Z,99.90
2022-08-16T05:25:47.842Z,99.90
2022-08-16T05:28:16.331Z,99.90
2022-08-16T05:30:43.258Z,99.90
2022-08-16T05:33:16.482Z,99.90
2022-08-16T05:35:43.778Z,99.90
2022-08-16T05:38:33.432Z,99.90
2022-08-16T05:40:59.957Z,99.90
2022-08-16T05:43:28.195Z,99.90
2022-08-16T05:46:00.188Z,99.90
2022-08-16T05:48:27.330Z,99.90
2022-08-16T05:50:54.035Z,99.90
2022-08-16T05:53:22.188Z,99.90
2022-08-16T05:55:51.650Z,99.90
2022-08-16T05:58:31.843Z,99.90
2022-08-16T06:01:00.043Z,99.90
2022-08-16T06:03:26.596Z,99.90
2022-08-16T06:05:56.692Z,99.90
2022-08-16T06:08:32.154Z,99.90
2022-08-16T06:11:13.385Z,99.90
2022-08-16T06:13:42.697Z,99.90
2022-08-16T06:16:17.995Z,99.90
2022-08-16T06:18:45.327Z,99.90
2022-08-16T06:21:13.560Z,99.90
2022-08-16T06:23:49.882Z,99.90
2022-08-16T06:26:21.224Z,99.90
2022-08-16T06:28:47.830Z,99.90
2022-08-16T06:31:16.773Z,99.90
2022-08-16T06:33:44.967Z,99.90
2022-08-16T06:36:13.882Z,99.90
2022-08-16T06:38:56.162Z,99.90
2022-08-16T06:41:27.242Z,99.90
2022-08-16T06:43:54.867Z,99.90
2022-08-16T06:46:35.042Z,99.90
2022-08-16T06:49:11.040Z,99.90
2022-08-16T06:51:46.340Z,99.90
2022-08-16T06:54:15.448Z,99.90
2022-08-16T06:56:42.465Z,99.90
2022-08-16T06:59:10.260Z,99.90
2022-08-16T07:01:44.921Z,99.90
2022-08-16T07:04:33.236Z,99.90
2022-08-16T07:07:05.466Z,99.90
2022-08-16T07:09:32.646Z,99.90
2022-08-16T07:12:03.968Z,99.90
2022-08-16T07:14:33.146Z,99.90
2022-08-16T07:17:00.416Z,99.90
2022-08-16T07:19:33.611Z,99.90
2022-08-16T07:22:37.116Z,99.90
2022-08-16T07:25:06.403Z,99.90
2022-08-16T07:27:33.814Z,99.90
2022-08-16T07:30:38.475Z,99.90
2022-08-16T07:32:53.467Z,99.90
2022-08-16T07:35:20.116Z,99.90
2022-08-16T07:37:46.662Z,99.90
2022-08-16T07:40:13.919Z,99.90
2022-08-16T07:42:40.884Z,99.90
2022-08-16T07:45:10.222Z,99.90
2022-08-16T07:47:37.484Z,99.90
2022-08-16T07:50:07.793Z,99.90
2022-08-16T07:52:34.754Z,99.90
2022-08-16T07:55:06.889Z,99.90
2022-08-16T07:57:37.965Z,99.90
2022-08-16T08:00:18.781Z,99.90
2022-08-16T08:02:47.436Z,99.90
2022-08-16T08:05:19.093Z,99.90
2022-08-16T08:08:03.019Z,99.90
2022-08-16T08:10:38.928Z,99.90
2022-08-16T08:13:06.000Z,99.90
2022-08-16T08:15:34.562Z,99.90
2022-08-16T08:18:30.346Z,99.90
2022-08-16T08:20:59.321Z,99.90
2022-08-16T08:23:28.078Z,99.70
2022-08-16T08:25:56.058Z,98.10
2022-08-16T08:28:22.983Z,96.80
2022-08-16T08:31:02.430Z,94.20
2022-08-16T08:33:31.637Z,92.10
2022-08-16T08:36:00.887Z,90.60
2022-08-16T08:38:45.150Z,87.30
2022-08-16T08:41:15.210Z,80.00
2022-08-16T08:43:42.880Z,74.40
2022-08-16T08:46:17.927Z,69.90
2022-08-16T08:48:59.667Z,66.40
2022-08-16T08:51:35.583Z,63.80
2022-08-16T08:54:06.829Z,63.00
2022-08-16T08:56:34.838Z,61.20
2022-08-16T08:59:06.081Z,60.50
2022-08-16T09:01:42.725Z,59.80
2022-08-16T09:04:14.612Z,59.20
2022-08-16T09:06:44.404Z,58.20
2022-08-16T09:09:16.752Z,56.70
2022-08-16T09:11:47.306Z,56.70
2022-08-16T09:14:23.877Z,55.80
2022-08-16T09:17:02.858Z,56.30
2022-08-16T09:19:41.029Z,56.00
2022-08-16T09:22:19.743Z,56.10
2022-08-16T09:24:52.479Z,55.20
2022-08-16T09:27:21.741Z,58.40
2022-08-16T09:29:59.868Z,57.60
2022-08-16T09:32:30.265Z,56.60
2022-08-16T09:34:59.606Z,55.30
2022-08-16T09:37:30.520Z,53.60
2022-08-16T09:40:31.681Z,52.70
2022-08-16T09:42:56.597Z,52.80
2022-08-16T09:45:27.859Z,53.20
2022-08-16T09:47:56.453Z,53.20
2022-08-16T09:50:26.809Z,52.20
2022-08-16T09:53:06.011Z,52.90
2022-08-16T09:55:33.241Z,52.90
2022-08-16T09:58:12.293Z,51.50
2022-08-16T10:00:57.650Z,52.40
2022-08-16T10:03:27.530Z,52.40
2022-08-16T10:05:57.560Z,52.70
2022-08-16T10:08:25.717Z,51.90
2022-08-16T10:11:12.272Z,51.10
2022-08-16T10:13:39.529Z,50.20
2022-08-16T10:18:48.286Z,51.30
2022-08-16T10:21:23.888Z,51.00
2022-08-16T10:23:53.590Z,49.80
2022-08-16T10:27:16.123Z,49.60
2022-08-16T10:29:11.631Z,49.80
2022-08-16T10:31:45.595Z,51.40
2022-08-16T10:34:31.541Z,53.00
2022-08-16T10:37:00.506Z,56.20
2022-08-16T10:39:40.929Z,55.60
2022-08-16T10:42:09.071Z,53.10
2022-08-16T10:44:36.594Z,52.40
2022-08-16T10:47:03.590Z,50.60
2022-08-16T10:49:30.658Z,49.80
2022-08-16T10:52:02.536Z,50.10
2022-08-16T10:54:31.310Z,48.80
2022-08-16T10:57:00.540Z,48.80
2022-08-16T10:59:38.343Z,49.40
2022-08-16T11:02:58.363Z,50.40
2022-08-16T11:05:09.432Z,50.00
2022-08-16T11:07:43.316Z,49.30
2022-08-16T11:10:20.476Z,49.40
2022-08-16T11:12:47.866Z,48.20
2022-08-16T11:15:20.160Z,46.90
2022-08-16T11:18:21.567Z,47.50
2022-08-16T11:20:41.555Z,47.10
2022-08-16T11:23:09.839Z,47.10
2022-08-16T11:31:10.891Z,45.40
2022-08-16T11:33:55.649Z,46.60
2022-08-16T11:36:27.663Z,47.40
2022-08-16T11:38:57.852Z,47.70
2022-08-16T11:41:25.968Z,47.20
2022-08-16T11:43:55.993Z,47.20
2022-08-16T11:46:34.164Z,48.00
2022-08-16T11:49:13.375Z,47.00
2022-08-16T11:51:43.711Z,45.80
2022-08-16T11:54:21.429Z,46.70
2022-08-16T11:56:56.698Z,47.00
2022-08-16T11:59:28.471Z,47.00
2022-08-16T12:01:59.789Z,48.20
2022-08-16T12:04:31.347Z,48.30
2022-08-16T12:06:58.589Z,48.10
2022-08-16T12:09:29.585Z,51.30
2022-08-16T12:11:58.145Z,52.70
2022-08-16T12:14:24.773Z,54.10
2022-08-16T12:16:55.248Z,54.70
2022-08-16T12:19:35.596Z,54.90
2022-08-16T12:22:05.631Z,55.60
2022-08-16T12:24:45.316Z,55.90
2022-08-16T12:27:18.040Z,55.80
2022-08-16T12:29:44.578Z,56.40
2022-08-16T12:32:35.711Z,56.40
2022-08-16T12:34:58.354Z,56.10
2022-08-16T12:37:25.595Z,55.70
2022-08-16T12:39:56.170Z,55.90
2022-08-16T12:42:24.437Z,56.30
2022-08-16T12:45:03.372Z,56.40
2022-08-16T12:47:48.875Z,56.60
2022-08-16T12:50:16.101Z,56.80
2022-08-16T12:52:52.431Z,56.90
2022-08-16T12:55:21.892Z,57.80
2022-08-16T12:57:58.047Z,57.60
2022-08-16T13:00:33.529Z,57.50
2022-08-16T13:03:02.072Z,57.70
2022-08-16T13:08:03.179Z,56.80
2022-08-16T13:10:37.364Z,57.40
2022-08-16T13:13:06.575Z,58.00
2022-08-16T13:15:51.784Z,58.30
2022-08-16T13:18:32.506Z,58.10
2022-08-16T13:21:06.085Z,57.50
2022-08-16T13:23:33.810Z,58.40
2022-08-16T13:26:03.530Z,58.60
2022-08-16T13:28:30.119Z,59.00
2022-08-16T13:30:58.519Z,59.00
2022-08-16T13:33:36.751Z,58.90
2022-08-16T13:36:06.806Z,58.20
2022-08-16T13:38:47.645Z,58.40
2022-08-16T13:41:15.970Z,57.80
2022-08-16T13:43:43.027Z,58.40
2022-08-16T13:46:09.727Z,58.30
2022-08-16T13:48:44.264Z,57.60
2022-08-16T13:51:17.088Z,57.70
2022-08-16T13:53:54.371Z,57.30
2022-08-16T13:56:25.766Z,57.30
2022-08-16T13:58:54.916Z,56.50
2022-08-16T14:01:21.986Z,56.60
2022-08-16T14:03:49.103Z,57.00
2022-08-16T14:06:15.776Z,56.40
2022-08-16T14:08:58.816Z,55.70
2022-08-16T14:11:32.214Z,56.10
2022-08-16T14:13:59.244Z,56.10
2022-08-16T14:16:33.578Z,56.60
2022-08-16T14:19:02.127Z,55.80
2022-08-16T14:21:34.932Z,56.60
2022-08-16T14:24:22.130Z,56.50
2022-08-16T14:26:50.505Z,56.60
2022-08-16T14:31:53.633Z,56.70
2022-08-16T14:34:21.018Z,56.70
2022-08-16T14:36:52.125Z,56.40
2022-08-16T14:39:21.814Z,56.00
2022-08-16T14:41:48.711Z,56.20
2022-08-16T14:44:19.869Z,56.60
2022-08-16T14:46:46.786Z,55.90
2022-08-16T14:49:14.284Z,56.00
2022-08-16T14:51:40.988Z,56.30
2022-08-16T14:54:11.308Z,56.80
2022-08-16T14:56:38.537Z,56.20
2022-08-16T14:59:09.287Z,55.70
2022-08-16T15:01:58.041Z,56.40
2022-08-16T15:04:37.826Z,56.20
2022-08-16T15:07:13.289Z,56.30
2022-08-16T15:09:44.830Z,56.60
2022-08-16T15:12:30.913Z,57.00
2022-08-16T15:15:04.428Z,57.50
2022-08-16T15:17:41.367Z,56.70
2022-08-16T15:20:09.147Z,56.40
2022-08-16T15:22:39.495Z,56.50
2022-08-16T15:25:13.812Z,56.80
2022-08-16T15:27:42.650Z,56.50
2022-08-16T15:30:57.860Z,56.40
2022-08-16T15:33:09.614Z,56.40
2022-08-16T15:35:38.582Z,56.80
2022-08-16T15:38:08.852Z,56.80
2022-08-16T15:40:36.942Z,56.40
2022-08-16T15:43:23.422Z,56.40
2022-08-16T15:46:35.003Z,56.90
2022-08-16T15:49:06.989Z,55.80
2022-08-16T15:51:34.353Z,56.20
2022-08-16T15:54:21.285Z,56.20
2022-08-16T15:56:51.325Z,56.50
2022-08-16T15:59:19.252Z,56.20
2022-08-16T16:01:46.723Z,56.60
2022-08-16T16:04:14.843Z,57.10
2022-08-16T16:06:49.265Z,57.50
2022-08-16T16:09:26.144Z,56.90
2022-08-16T16:12:16.242Z,57.10
2022-08-16T16:14:52.085Z,57.30
2022-08-16T16:17:18.757Z,56.10
2022-08-16T16:19:45.525Z,56.20
2022-08-16T16:22:16.396Z,56.30
2022-08-16T16:24:46.897Z,56.20
2022-08-16T16:27:14.092Z,56.30
2022-08-16T16:29:42.755Z,56.60
2022-08-16T16:32:13.385Z,55.80
2022-08-16T16:34:43.031Z,56.90
2022-08-16T16:37:10.310Z,56.20
2022-08-16T16:39:37.552Z,56.10
2022-08-16T16:42:05.141Z,56.00
2022-08-16T16:44:36.428Z,56.00
2022-08-16T16:47:04.137Z,56.40
2022-08-16T16:49:32.791Z,56.80
2022-08-16T16:52:07.436Z,56.70
2022-08-16T16:54:35.369Z,57.20
2022-08-16T16:57:02.166Z,57.60
2022-08-16T16:59:28.969Z,57.30
2022-08-16T17:02:40.919Z,57.60
2022-08-16T17:04:46.159Z,57.60
2022-08-16T17:07:14.692Z,57.50
2022-08-16T17:09:41.578Z,58.00
2022-08-16T17:12:10.069Z,58.00
2022-08-16T17:14:50.272Z,58.20
2022-08-16T17:17:17.053Z,57.60
2022-08-16T17:19:43.595Z,57.40
2022-08-16T17:22:15.185Z,58.00
2022-08-16T17:24:47.699Z,58.30
2022-08-16T17:27:19.321Z,58.20
2022-08-16T17:30:01.469Z,58.80
2022-08-16T17:32:47.082Z,58.70
2022-08-16T17:35:18.203Z,58.90
2022-08-16T17:37:51.393Z,59.10
2022-08-16T17:40:40.535Z,59.00
2022-08-16T17:43:10.051Z,58.90
2022-08-16T17:45:38.221Z,59.20
2022-08-16T17:48:05.639Z,60.20
2022-08-16T17:50:32.652Z,60.20
2022-08-16T17:53:00.833Z,60.80
2022-08-16T17:55:36.578Z,59.20
2022-08-16T17:58:09.914Z,59.00
2022-08-16T18:00:52.208Z,59.20
2022-08-16T18:04:02.722Z,60.30
2022-08-16T18:06:22.778Z,59.40
2022-08-16T18:08:50.543Z,59.30
2022-08-16T18:11:19.475Z,59.60
2022-08-16T18:13:53.638Z,59.80
2022-08-16T18:16:20.547Z,60.00
2022-08-16T18:18:47.105Z,60.10
2022-08-16T18:21:33.829Z,60.40
2022-08-16T18:24:00.773Z,61.00
2022-08-16T18:26:27.345Z,61.50
2022-08-16T18:28:54.027Z,61.80
2022-08-16T18:31:20.754Z,62.10
2022-08-16T18:33:47.338Z,62.30
2022-08-16T18:36:20.618Z,62.80
2022-08-16T18:38:49.530Z,62.80
2022-08-16T18:41:16.915Z,63.20
2022-08-16T18:44:22.902Z,63.30
2022-08-16T18:46:30.465Z,63.50
2022-08-16T18:48:57.120Z,63.80
2022-08-16T18:51:25.471Z,63.90
2022-08-16T18:53:52.750Z,64.40
2022-08-16T18:56:19.603Z,64.70
2022-08-16T18:58:46.137Z,65.80
2022-08-16T19:01:12.890Z,65.70
2022-08-16T19:03:39.579Z,66.80
2022-08-16T19:06:11.254Z,67.50
2022-08-16T19:08:40.792Z,68.90
2022-08-16T19:11:11.346Z,69.20
2022-08-16T19:13:40.174Z,69.10
2022-08-16T19:16:07.459Z,69.70
2022-08-16T19:18:36.837Z,69.50
2022-08-16T19:21:04.178Z,69.60
2022-08-16T19:23:34.263Z,71.40
2022-08-16T19:26:07.303Z,72.00
2022-08-16T19:28:50.580Z,71.90
2022-08-16T19:31:30.534Z,73.60
2022-08-16T19:33:58.142Z,74.00
2022-08-16T19:36:36.180Z,74.20
2022-08-16T19:39:08.859Z,74.50
2022-08-16T19:41:37.362Z,74.50
2022-08-16T19:44:05.217Z,75.00
2022-08-16T19:46:31.853Z,75.30
2022-08-16T19:48:58.461Z,75.50
2022-08-16T19:51:25.280Z,76.50
2022-08-16T19:53:51.868Z,77.20
2022-08-16T19:56:18.605Z,77.70
2022-08-16T19:59:02.317Z,77.50
2022-08-16T20:01:32.440Z,77.30
2022-08-16T20:03:59.385Z,77.70
2022-08-16T20:06:32.125Z,77.70
2022-08-16T20:09:05.127Z,77.10
2022-08-16T20:11:31.669Z,77.40
2022-08-16T20:13:59.151Z,77.60
2022-08-16T20:16:25.829Z,77.70
2022-08-16T20:18:52.392Z,77.90
2022-08-16T20:21:19.337Z,77.90
2022-08-16T20:23:45.993Z,78.10
2022-08-16T20:26:12.561Z,77.90
2022-08-16T20:28:52.595Z,78.30
2022-08-16T20:31:21.885Z,78.70
2022-08-16T20:33:48.472Z,79.10
2022-08-16T20:36:16.026Z,79.50
2022-08-16T20:38:46.513Z,79.90
2022-08-16T20:41:13.232Z,80.40
2022-08-16T20:43:39.850Z,81.70
2022-08-16T20:46:06.468Z,81.90
2022-08-16T20:48:33.040Z,82.30
2022-08-16T20:50:59.622Z,83.10
2022-08-16T20:53:26.228Z,83.60
2022-08-16T20:55:52.904Z,84.10
2022-08-16T20:58:19.490Z,83.70
2022-08-16T21:00:47.157Z,83.80
2022-08-16T21:03:14.036Z,84.00
2022-08-16T21:05:40.671Z,84.20
2022-08-16T21:08:51.093Z,83.30
2022-08-16T21:10:55.986Z,83.30
2022-08-16T21:13:25.484Z,83.30
2022-08-16T21:15:52.737Z,86.30
2022-08-16T21:18:19.424Z,85.30
2022-08-16T21:20:46.146Z,85.30
2022-08-16T21:23:12.759Z,85.80
2022-08-16T21:25:54.837Z,86.30
2022-08-16T21:28:36.199Z,88.60
2022-08-16T21:31:09.320Z,89.20
2022-08-16T21:33:36.244Z,90.30
2022-08-16T21:36:03.556Z,91.10
2022-08-16T21:38:31.129Z,90.70
2022-08-16T21:40:59.599Z,91.00
2022-08-16T21:43:27.528Z,92.10
2022-08-16T21:45:55.394Z,92.00
2022-08-16T21:48:34.129Z,92.10
2022-08-16T21:51:08.092Z,93.20
2022-08-16T21:53:36.098Z,93.00
2022-08-16T21:56:06.062Z,93.80
2022-08-16T21:58:33.989Z,94.00
2022-08-16T22:01:01.849Z,94.70
2022-08-16T22:03:32.819Z,95.20
2022-08-16T22:06:12.282Z,95.40
2022-08-16T22:08:48.855Z,95.90
2022-08-16T22:11:22.196Z,96.30
2022-08-16T22:13:58.356Z,97.00
2022-08-16T22:16:31.253Z,96.70
2022-08-16T22:18:57.891Z,97.50
2022-08-16T22:21:25.037Z,97.90
2022-08-16T22:23:57.133Z,97.80
2022-08-16T22:26:30.111Z,98.20
2022-08-16T22:28:58.685Z,98.60
2022-08-16T22:31:25.289Z,98.70
2022-08-16T22:33:51.903Z,99.10
2022-08-16T22:36:18.526Z,99.50
2022-08-16T22:38:54.324Z,99.50
2022-08-16T22:41:24.414Z,99.30
2022-08-16T22:43:51.275Z,99.70
2022-08-16T22:46:19.527Z,99.90
2022-08-16T22:48:49.852Z,99.90
2022-08-16T22:51:17.523Z,99.90
2022-08-16T22:53:44.261Z,99.90
2022-08-16T22:56:11.064Z,99.90
2022-08-16T22:58:37.723Z,99.90
2022-08-16T23:01:06.930Z,99.90
2022-08-16T23:03:34.309Z,99.90
2022-08-16T23:06:01.298Z,99.90
2022-08-16T23:08:38.360Z,99.90
2022-08-16T23:11:12.988Z,99.90
2022-08-16T23:13:52.618Z,99.90
2022-08-16T23:16:22.302Z,99.90
2022-08-16T23:18:49.581Z,99.90
2022-08-16T23:21:17.881Z,99.90
2022-08-16T23:23:46.441Z,99.90
2022-08-16T23:26:44.774Z,99.90
2022-08-16T23:29:04.202Z,99.90
2022-08-16T23:31:32.355Z,99.90
2022-08-16T23:33:59.880Z,99.90
2022-08-16T23:36:26.684Z,99.90
2022-08-16T23:38:53.272Z,99.90
2022-08-16T23:41:20.225Z,99.90
2022-08-16T23:43:46.761Z,99.90
2022-08-16T23:46:17.584Z,99.90
2022-08-16T23:50:01.795Z,99.90
2022-08-16T23:51:31.808Z,99.90
2022-08-16T23:53:58.912Z,99.90
2022-08-16T23:56:25.675Z,99.90
2022-08-16T23:58:58.318Z,99.90
